createdAt,value
2019-05-18T00:01:14.690Z,22.00
2019-05-18T00:03:43.762Z,23.30
2019-05-18T00:06:13.826Z,24.40
2019-05-18T00:08:41.940Z,22.30
2019-05-18T00:11:10.081Z,21.62
2019-05-18T00:13:38.260Z,22.07
2019-05-18T00:16:06.402Z,25.37
2019-05-18T00:18:34.518Z,24.40
2019-05-18T00:21:02.715Z,22.10
2019-05-18T00:23:30.915Z,22.33
2019-05-18T00:25:59.101Z,23.47
2019-05-18T00:28:27.236Z,24.52
2019-05-18T00:30:55.454Z,21.13
2019-05-18T00:33:23.603Z,20.87
2019-05-18T00:35:51.870Z,22.47
2019-05-18T00:38:20.773Z,20.95
2019-05-18T00:40:48.972Z,19.97
2019-05-18T00:43:17.158Z,20.60
2019-05-18T00:45:45.295Z,21.07
2019-05-18T00:48:13.515Z,21.00
2019-05-18T00:50:41.738Z,24.17
2019-05-18T00:53:09.954Z,23.90
2019-05-18T00:55:38.137Z,22.55
2019-05-18T00:58:06.257Z,21.27
2019-05-18T01:00:34.857Z,21.20
2019-05-18T01:03:02.975Z,26.47
2019-05-18T01:05:31.190Z,20.27
2019-05-18T01:07:59.371Z,22.02
2019-05-18T01:10:27.720Z,20.00
2019-05-18T01:12:56.682Z,21.52
2019-05-18T01:15:24.860Z,42.87
2019-05-18T01:17:57.344Z,28.27
2019-05-18T01:20:24.130Z,24.35
2019-05-18T01:22:52.989Z,24.17
2019-05-18T01:25:21.185Z,21.70
2019-05-18T01:27:49.404Z,23.50
2019-05-18T01:30:18.445Z,24.30
2019-05-18T01:32:46.649Z,24.17
2019-05-18T01:35:14.934Z,21.67
2019-05-18T01:37:43.088Z,21.47
2019-05-18T01:40:12.568Z,19.53
2019-05-18T01:42:40.728Z,24.57
2019-05-18T01:45:16.804Z,19.48
2019-05-18T01:47:39.156Z,20.17
2019-05-18T01:50:07.441Z,19.83
2019-05-18T01:52:36.151Z,21.03
2019-05-18T01:55:05.467Z,25.60
2019-05-18T01:57:33.606Z,20.70
2019-05-18T02:00:01.799Z,20.60
2019-05-18T02:02:30.705Z,19.23
2019-05-18T02:04:58.824Z,23.27
2019-05-18T02:07:27.012Z,23.47
2019-05-18T02:09:55.231Z,21.17
2019-05-18T02:12:23.410Z,20.47
2019-05-18T02:14:51.566Z,19.37
2019-05-18T02:17:19.697Z,21.80
2019-05-18T02:19:47.842Z,19.33
2019-05-18T02:22:15.968Z,21.37
2019-05-18T02:24:44.075Z,21.53
2019-05-18T02:27:12.255Z,20.17
2019-05-18T02:29:40.396Z,20.10
2019-05-18T02:32:08.492Z,23.22
2019-05-18T02:34:36.679Z,21.53
2019-05-18T02:37:05.632Z,21.33
2019-05-18T02:39:33.757Z,20.73
2019-05-18T02:42:01.992Z,20.37
2019-05-18T02:44:30.109Z,21.00
2019-05-18T02:46:58.254Z,20.80
2019-05-18T02:49:26.399Z,21.90
2019-05-18T02:51:54.533Z,20.70
2019-05-18T02:54:23.386Z,24.17
2019-05-18T02:56:51.673Z,22.37
2019-05-18T02:59:19.805Z,20.47
2019-05-18T03:01:47.962Z,25.77
2019-05-18T03:04:16.170Z,21.87
2019-05-18T03:06:44.461Z,21.40
2019-05-18T03:09:12.591Z,23.83
2019-05-18T03:11:40.739Z,20.05
2019-05-18T03:14:08.902Z,23.40
2019-05-18T03:16:37.838Z,22.20
2019-05-18T03:19:08.717Z,23.63
2019-05-18T03:21:35.866Z,21.73
2019-05-18T03:24:04.109Z,20.02
2019-05-18T03:26:32.300Z,23.17
2019-05-18T03:29:00.441Z,22.53
2019-05-18T03:31:28.550Z,26.37
2019-05-18T03:33:57.414Z,23.55
2019-05-18T03:36:25.529Z,26.33
2019-05-18T03:38:53.673Z,23.43
2019-05-18T03:41:21.927Z,25.30
2019-05-18T03:43:50.054Z,21.47
2019-05-18T03:46:18.311Z,21.48
2019-05-18T03:48:46.593Z,21.60
2019-05-18T03:51:14.751Z,22.80
2019-05-18T03:53:42.874Z,22.53
2019-05-18T03:56:11.747Z,20.10
2019-05-18T03:58:39.849Z,23.87
2019-05-18T04:01:09.244Z,22.80
2019-05-18T04:03:37.386Z,23.57
2019-05-18T04:06:30.833Z,24.13
2019-05-18T04:08:58.937Z,20.87
2019-05-18T04:11:27.359Z,22.87
2019-05-18T04:13:55.469Z,22.00
2019-05-18T04:16:23.671Z,20.93
2019-05-18T04:18:51.858Z,21.50
2019-05-18T04:21:20.060Z,20.80
2019-05-18T04:23:48.998Z,21.45
2019-05-18T04:26:17.161Z,20.53
2019-05-18T04:28:45.392Z,22.82
2019-05-18T04:31:13.517Z,23.83
2019-05-18T04:33:41.762Z,22.50
2019-05-18T04:36:09.873Z,19.77
2019-05-18T04:38:38.085Z,21.70
2019-05-18T04:41:06.242Z,23.73
2019-05-18T04:43:34.327Z,21.20
2019-05-18T04:46:03.285Z,25.17
2019-05-18T04:48:31.528Z,24.40
2019-05-18T04:50:59.921Z,25.63
2019-05-18T04:53:28.071Z,21.57
2019-05-18T04:55:56.190Z,23.57
2019-05-18T04:58:24.329Z,27.40
2019-05-18T05:00:52.436Z,23.53
2019-05-18T05:03:21.122Z,20.27
2019-05-18T05:05:49.224Z,22.43
2019-05-18T05:08:20.559Z,21.47
2019-05-18T05:10:48.701Z,24.37
2019-05-18T05:13:16.845Z,27.63
2019-05-18T05:15:44.988Z,24.60
2019-05-18T05:18:13.237Z,24.83
2019-05-18T05:20:41.510Z,23.10
2019-05-18T05:23:09.627Z,22.93
2019-05-18T05:25:37.836Z,24.00
2019-05-18T05:28:05.955Z,25.43
2019-05-18T05:30:34.113Z,22.70
2019-05-18T05:33:02.294Z,24.57
2019-05-18T05:35:30.428Z,26.17
2019-05-18T05:37:58.590Z,22.40
2019-05-18T05:40:26.847Z,23.17
2019-05-18T05:42:55.037Z,23.60
2019-05-18T05:45:23.665Z,25.50
2019-05-18T05:47:54.060Z,26.80
2019-05-18T05:50:34.548Z,24.77
2019-05-18T05:52:51.693Z,22.77
2019-05-18T05:55:19.828Z,24.25
2019-05-18T05:57:52.698Z,22.50
2019-05-18T06:00:20.882Z,22.60
2019-05-18T06:02:49.083Z,22.90
2019-05-18T06:05:17.238Z,23.07
2019-05-18T06:07:45.349Z,22.50
2019-05-18T06:10:14.399Z,22.10
2019-05-18T06:12:42.634Z,27.53
2019-05-18T06:15:11.038Z,22.10
2019-05-18T06:17:39.298Z,21.73
2019-05-18T06:20:07.764Z,21.50
2019-05-18T06:22:35.946Z,23.37
2019-05-18T06:30:15.486Z,21.90
2019-05-18T06:37:51.271Z,21.33
2019-05-18T06:40:19.537Z,22.03
2019-05-18T06:42:47.671Z,22.07
2019-05-18T06:45:15.852Z,24.20
2019-05-18T06:47:44.017Z,19.90
2019-05-18T07:08:14.408Z,19.77
2019-05-18T07:10:43.994Z,18.47
2019-05-18T07:13:16.567Z,20.70
2019-05-18T07:15:44.740Z,24.10
2019-05-18T07:18:15.498Z,26.43
2019-05-18T07:20:43.704Z,24.47
2019-05-18T07:23:11.832Z,26.20
2019-05-18T07:28:13.843Z,23.70
2019-05-18T07:30:42.448Z,26.13
2019-05-18T07:33:10.659Z,30.50
2019-05-18T07:35:38.770Z,36.07
2019-05-18T07:38:06.886Z,26.97
2019-05-18T07:40:35.058Z,25.87
2019-05-18T07:43:03.203Z,22.10
2019-05-18T07:45:31.372Z,24.20
2019-05-18T07:48:00.166Z,42.45
2019-05-18T07:50:28.473Z,22.53
2019-05-18T07:52:58.122Z,21.40
2019-05-18T07:55:26.366Z,21.70
2019-05-18T07:57:54.617Z,22.30
2019-05-18T08:00:22.834Z,20.77
2019-05-18T08:02:50.937Z,22.30
2019-05-18T08:05:19.143Z,17.35
2019-05-18T08:07:47.361Z,18.33
2019-05-18T08:10:17.104Z,16.37
2019-05-18T08:12:45.235Z,15.10
2019-05-18T08:15:16.184Z,18.23
2019-05-18T08:17:44.363Z,17.87
2019-05-18T08:20:12.580Z,23.70
2019-05-18T08:22:40.743Z,14.07
2019-05-18T08:25:08.889Z,16.93
2019-05-18T08:27:37.111Z,21.52
2019-05-18T08:30:06.926Z,13.47
2019-05-18T08:32:35.091Z,11.07
2019-05-18T08:35:06.587Z,9.80
2019-05-18T08:37:34.810Z,26.10
2019-05-18T08:40:04.471Z,22.10
2019-05-18T08:42:32.606Z,11.33
2019-05-18T08:45:00.730Z,12.10
2019-05-18T08:47:28.915Z,11.20
2019-05-18T08:49:57.079Z,14.03
2019-05-18T08:52:25.223Z,13.50
2019-05-18T08:54:53.346Z,27.67
2019-05-18T08:57:21.475Z,11.63
2019-05-18T08:59:49.590Z,12.07
2019-05-18T09:02:17.720Z,13.23
2019-05-18T09:04:45.812Z,13.90
2019-05-18T09:07:13.957Z,12.93
2019-05-18T09:09:42.289Z,16.30
2019-05-18T09:12:10.788Z,17.87
2019-05-18T09:14:38.913Z,22.97
2019-05-18T09:17:07.604Z,14.37
2019-05-18T09:19:35.731Z,14.13
2019-05-18T09:22:06.090Z,13.13
2019-05-18T09:24:34.257Z,14.97
2019-05-18T09:27:02.423Z,14.97
2019-05-18T09:29:31.168Z,12.75
2019-05-18T09:32:00.859Z,14.87
2019-05-18T09:34:29.194Z,13.43
2019-05-18T09:36:57.395Z,13.90
2019-05-18T09:39:25.602Z,15.00
2019-05-18T09:41:53.733Z,17.00
2019-05-18T09:44:22.005Z,14.27
2019-05-18T09:46:50.299Z,15.53
2019-05-18T09:49:18.498Z,14.63
2019-05-18T09:51:46.712Z,12.97
2019-05-18T09:54:14.820Z,15.47
2019-05-18T09:56:42.963Z,14.53
2019-05-18T09:59:11.147Z,11.70
2019-05-18T10:01:39.260Z,15.43
2019-05-18T10:04:07.394Z,16.23
2019-05-18T10:06:35.589Z,13.00
2019-05-18T10:09:08.349Z,14.58
2019-05-18T10:11:38.593Z,17.00
2019-05-18T10:14:07.185Z,16.23
2019-05-18T10:16:35.314Z,14.97
2019-05-18T10:19:03.488Z,13.77
2019-05-18T10:21:32.367Z,14.30
2019-05-18T10:24:00.563Z,11.80
2019-05-18T10:26:28.699Z,12.03
2019-05-18T10:28:56.976Z,12.17
2019-05-18T10:31:25.189Z,13.80
2019-05-18T10:33:53.429Z,13.50
2019-05-18T10:36:21.633Z,13.37
2019-05-18T10:38:49.744Z,13.83
2019-05-18T10:41:17.894Z,10.90
2019-05-18T10:43:46.876Z,11.22
2019-05-18T10:46:15.417Z,12.80
2019-05-18T10:48:43.631Z,12.47
2019-05-18T10:51:13.477Z,9.40
2019-05-18T10:53:43.265Z,9.83
2019-05-18T10:56:11.570Z,8.07
2019-05-18T10:58:39.681Z,9.13
2019-05-18T11:01:07.996Z,9.30
2019-05-18T11:03:36.144Z,16.52
2019-05-18T11:06:05.907Z,8.23
2019-05-18T11:08:34.016Z,9.10
2019-05-18T11:11:02.161Z,9.63
2019-05-18T11:13:30.334Z,9.18
2019-05-18T11:15:58.431Z,8.03
2019-05-18T11:18:26.557Z,9.83
2019-05-18T11:20:54.737Z,8.85
2019-05-18T11:23:23.223Z,8.45
2019-05-18T11:25:51.354Z,8.53
2019-05-18T11:28:19.470Z,10.20
2019-05-18T11:30:48.645Z,12.47
2019-05-18T11:33:16.911Z,12.07
2019-05-18T11:35:45.027Z,11.70
2019-05-18T11:38:14.009Z,10.53
2019-05-18T11:40:42.219Z,8.60
2019-05-18T11:43:10.371Z,8.55
2019-05-18T11:45:38.561Z,8.50
2019-05-18T11:48:06.693Z,7.20
2019-05-18T11:50:35.456Z,7.37
2019-05-18T11:53:03.655Z,7.95
2019-05-18T11:55:31.923Z,5.60
2019-05-18T11:58:00.131Z,7.12
2019-05-18T12:00:28.809Z,7.58
2019-05-18T12:02:57.061Z,7.50
2019-05-18T12:05:25.216Z,7.35
2019-05-18T12:07:53.548Z,7.50
2019-05-18T12:10:21.773Z,7.12
2019-05-18T12:12:50.055Z,6.90
2019-05-18T12:15:19.952Z,6.50
2019-05-18T12:17:48.301Z,7.78
2019-05-18T12:20:16.401Z,7.17
2019-05-18T12:22:44.533Z,6.92
2019-05-18T12:25:13.642Z,6.23
2019-05-18T12:27:41.821Z,7.80
2019-05-18T12:30:10.563Z,6.37
2019-05-18T12:32:38.765Z,6.75
2019-05-18T12:35:26.284Z,6.00
2019-05-18T12:37:54.414Z,5.45
2019-05-18T12:40:22.775Z,6.40
2019-05-18T12:42:51.007Z,6.62
2019-05-18T12:45:19.696Z,5.67
2019-05-18T12:47:47.866Z,5.78
2019-05-18T12:50:16.682Z,5.22
2019-05-18T12:52:49.360Z,4.33
2019-05-18T12:55:15.153Z,8.85
2019-05-18T12:57:43.412Z,4.60
2019-05-18T13:00:12.500Z,5.28
2019-05-18T13:02:40.670Z,4.00
2019-05-18T13:05:09.164Z,4.78
2019-05-18T13:07:37.440Z,5.35
2019-05-18T13:10:07.238Z,4.45
2019-05-18T13:12:35.444Z,4.45
2019-05-18T13:15:05.184Z,5.07
2019-05-18T13:17:33.300Z,4.10
2019-05-18T13:20:01.536Z,4.27
2019-05-18T13:22:29.671Z,5.30
2019-05-18T13:24:57.783Z,5.63
2019-05-18T13:27:38.367Z,3.92
2019-05-18T13:29:55.797Z,4.43
2019-05-18T13:32:23.940Z,6.58
2019-05-18T13:34:52.103Z,4.12
2019-05-18T13:37:20.214Z,8.65
2019-05-18T13:39:48.312Z,3.65
2019-05-18T13:42:16.431Z,6.00
2019-05-18T13:44:44.659Z,4.55
2019-05-18T13:47:12.874Z,3.67
2019-05-18T13:49:41.051Z,4.42
2019-05-18T13:52:09.247Z,5.22
2019-05-18T13:54:37.418Z,3.10
2019-05-18T13:57:05.603Z,6.05
2019-05-18T13:59:33.836Z,6.22
2019-05-18T14:02:02.107Z,3.77
2019-05-18T14:04:30.300Z,6.45
2019-05-18T14:06:58.485Z,8.43
2019-05-18T14:09:26.687Z,5.50
2019-05-18T14:11:54.843Z,3.62
2019-05-18T14:14:23.027Z,3.85
2019-05-18T14:16:51.222Z,5.73
2019-05-18T14:19:19.360Z,10.72
2019-05-18T14:21:48.257Z,5.17
2019-05-18T14:24:17.983Z,5.37
2019-05-18T14:26:46.146Z,6.05
2019-05-18T14:29:14.295Z,7.20
2019-05-18T14:31:42.460Z,8.70
2019-05-18T14:34:10.638Z,5.78
2019-05-18T14:36:38.862Z,6.58
2019-05-18T14:39:08.676Z,5.92
2019-05-18T14:41:36.767Z,4.72
2019-05-18T14:44:04.991Z,3.97
2019-05-18T14:46:33.218Z,5.03
2019-05-18T14:49:01.883Z,7.60
2019-05-18T14:51:30.081Z,5.83
2019-05-18T14:53:58.294Z,9.25
2019-05-18T14:56:26.548Z,5.53
2019-05-18T14:58:54.692Z,4.80
2019-05-18T15:01:22.817Z,5.33
2019-05-18T15:03:51.024Z,4.63
2019-05-18T15:06:24.933Z,4.42
2019-05-18T15:08:53.080Z,4.40
2019-05-18T15:11:21.298Z,4.53
2019-05-18T15:13:52.193Z,5.70
2019-05-18T15:16:25.018Z,6.85
2019-05-18T15:18:53.193Z,4.70
2019-05-18T15:21:21.331Z,4.53
2019-05-18T15:23:50.269Z,5.00
2019-05-18T15:26:18.427Z,4.93
2019-05-18T15:28:46.618Z,4.65
2019-05-18T15:31:14.740Z,4.55
2019-05-18T15:33:42.895Z,39.92
2019-05-18T15:36:11.410Z,5.60
2019-05-18T15:38:39.540Z,5.65
2019-05-18T15:41:07.989Z,7.35
2019-05-18T15:43:36.084Z,4.75
2019-05-18T15:46:04.277Z,4.30
2019-05-18T15:48:32.402Z,4.35
2019-05-18T15:51:00.652Z,5.25
2019-05-18T15:53:29.041Z,8.53
2019-05-18T15:56:05.405Z,5.37
2019-05-18T15:58:27.872Z,10.77
2019-05-18T16:00:55.994Z,11.03
2019-05-18T16:03:24.922Z,8.95
2019-05-18T16:05:53.107Z,9.33
2019-05-18T16:08:21.303Z,7.77
2019-05-18T16:10:49.426Z,11.85
2019-05-18T16:13:17.553Z,9.40
2019-05-18T16:15:45.770Z,7.87
2019-05-18T16:18:13.964Z,9.03
2019-05-18T16:20:42.376Z,4.77
2019-05-18T16:23:10.558Z,5.67
2019-05-18T16:25:38.708Z,5.90
2019-05-18T16:28:06.959Z,7.07
2019-05-18T16:30:35.170Z,10.33
2019-05-18T16:33:03.461Z,12.85
2019-05-18T16:35:31.700Z,5.20
2019-05-18T16:38:00.622Z,10.17
2019-05-18T16:40:28.756Z,6.87
2019-05-18T16:42:56.897Z,6.43
2019-05-18T16:45:25.131Z,6.35
2019-05-18T16:47:53.320Z,6.83
2019-05-18T16:50:21.526Z,7.55
2019-05-18T16:52:49.726Z,8.10
2019-05-18T16:55:17.981Z,6.78
2019-05-18T16:57:46.171Z,11.13
2019-05-18T17:00:16.197Z,9.23
2019-05-18T17:02:44.875Z,10.37
2019-05-18T17:05:13.759Z,12.47
2019-05-18T17:07:41.913Z,12.23
2019-05-18T17:10:10.156Z,10.53
2019-05-18T17:12:38.325Z,12.37
2019-05-18T17:15:07.055Z,9.80
2019-05-18T17:17:36.030Z,10.50
2019-05-18T17:20:05.498Z,10.60
2019-05-18T17:22:33.654Z,10.67
2019-05-18T17:25:01.894Z,11.00
2019-05-18T17:27:30.119Z,9.87
2019-05-18T17:29:58.297Z,9.70
2019-05-18T17:32:26.474Z,10.13
2019-05-18T17:34:54.622Z,10.70
2019-05-18T17:37:22.832Z,9.83
2019-05-18T17:39:51.788Z,19.43
2019-05-18T17:42:19.905Z,13.53
2019-05-18T17:44:48.054Z,19.03
2019-05-18T17:47:16.189Z,17.60
2019-05-18T17:49:44.359Z,11.90
2019-05-18T17:52:12.504Z,12.78
2019-05-18T17:54:40.688Z,14.37
2019-05-18T17:57:09.379Z,15.20
2019-05-18T17:59:37.822Z,12.47
2019-05-18T18:02:06.059Z,16.97
2019-05-18T18:04:34.326Z,31.60
2019-05-18T18:07:02.536Z,17.67
2019-05-18T18:09:30.730Z,16.90
2019-05-18T18:11:58.967Z,21.20
2019-05-18T18:14:27.238Z,20.27
2019-05-18T18:16:55.377Z,17.40
2019-05-18T18:19:25.255Z,21.60
2019-05-18T18:21:53.536Z,27.87
2019-05-18T18:24:21.682Z,18.57
2019-05-18T18:26:49.883Z,14.60
2019-05-18T18:29:18.015Z,42.77
2019-05-18T18:31:46.210Z,12.87
2019-05-18T18:34:14.456Z,13.20
2019-05-18T18:36:44.371Z,14.00
2019-05-18T18:39:12.494Z,18.87
2019-05-18T18:41:41.404Z,18.30
2019-05-18T18:44:09.634Z,17.10
2019-05-18T18:46:37.816Z,15.53
2019-05-18T18:49:06.048Z,14.10
2019-05-18T18:51:34.290Z,18.13
2019-05-18T18:54:04.864Z,17.20
2019-05-18T18:56:33.011Z,14.37
2019-05-18T18:59:03.397Z,17.00
2019-05-18T19:01:31.534Z,16.70
2019-05-18T19:03:59.682Z,16.10
2019-05-18T19:06:27.904Z,13.87
2019-05-18T19:08:56.109Z,15.23
2019-05-18T19:11:24.318Z,19.80
2019-05-18T19:13:52.455Z,17.40
2019-05-18T19:16:21.437Z,19.48
2019-05-18T19:18:49.727Z,15.07
2019-05-18T19:21:17.875Z,15.03
2019-05-18T19:23:46.051Z,20.73
2019-05-18T19:26:14.279Z,16.40
2019-05-18T19:28:42.567Z,17.97
2019-05-18T19:31:10.703Z,12.97
2019-05-18T19:33:38.936Z,14.17
2019-05-18T19:36:07.154Z,16.63
2019-05-18T19:38:36.098Z,16.47
2019-05-18T19:41:04.369Z,17.23
2019-05-18T19:43:32.536Z,17.17
2019-05-18T19:46:00.672Z,17.67
2019-05-18T19:48:28.836Z,21.67
2019-05-18T19:50:56.962Z,21.07
2019-05-18T19:53:25.202Z,20.17
2019-05-18T19:55:53.876Z,22.67
2019-05-18T19:58:22.045Z,21.53
2019-05-18T20:00:50.246Z,21.03
2019-05-18T20:03:18.432Z,22.60
2019-05-18T20:05:46.606Z,29.17
2019-05-18T20:08:14.867Z,24.75
2019-05-18T20:10:43.566Z,25.60
2019-05-18T20:13:12.443Z,24.77
2019-05-18T20:15:40.701Z,24.33
2019-05-18T20:18:08.924Z,23.30
2019-05-18T20:20:37.084Z,23.30
2019-05-18T20:23:08.159Z,25.67
2019-05-18T20:25:35.264Z,24.00
2019-05-18T20:28:03.580Z,26.03
2019-05-18T20:30:31.713Z,25.43
2019-05-18T20:32:59.921Z,29.87
2019-05-18T20:35:28.252Z,25.47
2019-05-18T20:37:56.535Z,25.47
2019-05-18T20:40:24.792Z,25.83
2019-05-18T20:42:52.981Z,26.03
2019-05-18T20:45:21.142Z,26.40
2019-05-18T20:47:49.271Z,29.13
2019-05-18T20:50:17.450Z,29.37
2019-05-18T20:52:45.580Z,29.47
2019-05-18T20:55:13.878Z,29.30
2019-05-18T20:57:42.044Z,55.30
2019-05-18T21:00:10.511Z,33.97
2019-05-18T21:02:38.638Z,36.43
2019-05-18T21:05:07.004Z,29.42
2019-05-18T21:07:35.137Z,28.97
2019-05-18T21:10:05.256Z,27.30
2019-05-18T21:12:33.381Z,28.13
2019-05-18T21:15:01.637Z,27.40
2019-05-18T21:17:29.908Z,23.83
2019-05-18T21:19:58.133Z,21.63
2019-05-18T21:22:26.264Z,19.53
2019-05-18T21:24:54.449Z,20.47
2019-05-18T21:27:22.671Z,21.93
2019-05-18T21:29:50.841Z,20.57
2019-05-18T21:32:19.410Z,18.85
2019-05-18T21:34:47.585Z,19.80
2019-05-18T21:37:15.717Z,20.60
2019-05-18T21:39:43.918Z,20.00
2019-05-18T21:42:12.066Z,19.33
2019-05-18T21:44:40.177Z,16.13
2019-05-18T21:47:08.383Z,19.77
2019-05-18T21:49:36.587Z,20.67
2019-05-18T21:52:04.761Z,20.37
2019-05-18T21:54:32.935Z,17.17
2019-05-18T21:57:01.062Z,21.37
2019-05-18T21:59:29.255Z,19.63
2019-05-18T22:01:57.386Z,18.83
2019-05-18T22:04:25.568Z,19.93
2019-05-18T22:06:54.514Z,21.93
2019-05-18T22:09:22.693Z,21.57
2019-05-18T22:11:51.652Z,23.20
2019-05-18T22:14:19.822Z,18.17
2019-05-18T22:16:47.975Z,18.37
2019-05-18T22:19:16.121Z,16.90
2019-05-18T22:21:44.365Z,19.67
2019-05-18T22:24:18.820Z,17.60
2019-05-18T22:26:47.090Z,18.40
2019-05-18T22:29:16.042Z,18.95
2019-05-18T22:31:44.256Z,17.70
2019-05-18T22:34:12.483Z,17.97
2019-05-18T22:36:40.685Z,20.13
2019-05-18T22:39:08.919Z,19.30
2019-05-18T22:41:37.049Z,19.23
2019-05-18T22:44:05.303Z,20.23
2019-05-18T22:46:33.451Z,22.93
2019-05-18T22:49:01.596Z,20.80
2019-05-18T22:51:29.795Z,19.37
2019-05-18T22:53:57.990Z,21.13
2019-05-18T22:56:26.960Z,18.73
2019-05-18T22:58:55.147Z,18.20
2019-05-18T23:01:23.375Z,20.57
2019-05-18T23:03:51.891Z,24.37
2019-05-18T23:06:20.318Z,20.13
2019-05-18T23:08:48.631Z,20.83
2019-05-18T23:11:16.887Z,19.50
2019-05-18T23:13:45.039Z,25.77
2019-05-18T23:16:13.169Z,31.25
2019-05-18T23:18:55.638Z,33.33
2019-05-18T23:21:11.257Z,27.60
2019-05-18T23:23:39.443Z,32.13
2019-05-18T23:26:11.354Z,28.80
2019-05-18T23:28:37.588Z,27.37
2019-05-18T23:31:06.568Z,28.13
2019-05-18T23:33:34.730Z,30.97
2019-05-18T23:36:02.961Z,31.67
2019-05-18T23:38:31.173Z,28.57
2019-05-18T23:40:59.386Z,28.27
2019-05-18T23:43:27.590Z,29.37
2019-05-18T23:45:56.289Z,32.47
2019-05-18T23:48:24.411Z,35.53
2019-05-18T23:50:52.576Z,41.07
2019-05-18T23:53:21.491Z,37.97
2019-05-18T23:55:49.621Z,39.47
2019-05-18T23:58:17.813Z,31.77
